createdAt,value
2018-09-04T00:01:22.592Z,18.79
2018-09-04T00:03:51.460Z,18.75
2018-09-04T00:06:20.274Z,18.69
2018-09-04T00:08:49.158Z,18.72
2018-09-04T00:11:18.012Z,18.67
2018-09-04T00:13:46.883Z,18.65
2018-09-04T00:16:15.741Z,18.60
2018-09-04T00:18:44.544Z,18.55
2018-09-04T00:21:13.452Z,18.53
2018-09-04T00:23:42.244Z,18.52
2018-09-04T00:26:11.130Z,18.51
2018-09-04T00:28:39.939Z,18.48
2018-09-04T00:31:09.095Z,18.45
2018-09-04T00:33:37.891Z,18.39
2018-09-04T00:36:07.422Z,18.41
2018-09-04T00:38:36.227Z,18.47
2018-09-04T00:41:05.129Z,18.37
2018-09-04T00:43:33.922Z,18.36
2018-09-04T00:46:02.829Z,18.36
2018-09-04T00:48:31.611Z,18.36
2018-09-04T00:51:00.575Z,18.32
2018-09-04T00:53:29.392Z,18.39
2018-09-04T00:55:58.618Z,18.37
2018-09-04T00:58:27.463Z,18.42
2018-09-04T01:00:56.267Z,18.29
2018-09-04T01:03:25.147Z,18.19
2018-09-04T01:05:53.936Z,18.18
2018-09-04T01:08:23.135Z,18.12
2018-09-04T01:10:51.916Z,18.10
2018-09-04T01:13:20.735Z,18.05
2018-09-04T01:15:49.583Z,18.07
2018-09-04T01:18:18.408Z,18.03
2018-09-04T01:20:47.224Z,18.00
2018-09-04T01:23:16.059Z,18.02
2018-09-04T01:25:44.863Z,17.95
2018-09-04T01:28:13.865Z,17.93
2018-09-04T01:30:42.900Z,17.87
2018-09-04T01:33:11.736Z,17.87
2018-09-04T01:35:40.671Z,17.81
2018-09-04T01:38:09.519Z,17.75
2018-09-04T01:40:38.367Z,17.76
2018-09-04T01:43:07.198Z,17.73
2018-09-04T01:45:36.904Z,17.70
2018-09-04T01:48:05.868Z,17.68
2018-09-04T01:50:34.719Z,17.62
2018-09-04T01:53:03.716Z,17.57
2018-09-04T01:55:32.545Z,17.58
2018-09-04T01:58:01.328Z,17.60
2018-09-04T02:00:30.176Z,17.60
2018-09-04T02:02:58.978Z,17.64
2018-09-04T02:05:28.156Z,17.63
2018-09-04T02:07:56.930Z,17.51
2018-09-04T02:10:25.768Z,17.45
2018-09-04T02:12:54.842Z,17.42
2018-09-04T02:15:23.845Z,17.48
2018-09-04T02:17:52.684Z,17.35
2018-09-04T02:20:21.522Z,17.40
2018-09-04T02:22:50.347Z,17.39
2018-09-04T02:25:19.185Z,17.34
2018-09-04T02:27:48.246Z,17.40
2018-09-04T02:30:17.235Z,17.29
2018-09-04T02:32:46.017Z,17.36
2018-09-04T02:35:14.859Z,17.33
2018-09-04T02:37:43.644Z,17.27
2018-09-04T02:40:12.503Z,17.36
2018-09-04T02:42:41.337Z,17.31
2018-09-04T02:45:10.177Z,17.21
2018-09-04T02:47:39.015Z,17.18
2018-09-04T02:50:07.771Z,17.08
2018-09-04T02:52:36.622Z,16.96
2018-09-04T02:55:05.559Z,16.88
2018-09-04T02:57:34.379Z,16.93
2018-09-04T03:00:03.359Z,16.91
2018-09-04T03:02:32.178Z,16.94
2018-09-04T03:05:01.244Z,16.81
2018-09-04T03:07:30.151Z,16.77
2018-09-04T03:09:58.972Z,16.79
2018-09-04T03:12:27.792Z,16.82
2018-09-04T03:14:56.594Z,16.80
2018-09-04T03:17:25.427Z,16.75
2018-09-04T03:19:54.282Z,16.78
2018-09-04T03:22:23.109Z,16.75
2018-09-04T03:24:51.896Z,16.75
2018-09-04T03:27:20.714Z,16.70
2018-09-04T03:29:49.774Z,16.62
2018-09-04T03:32:18.660Z,16.68
2018-09-04T03:34:47.467Z,16.62
2018-09-04T03:37:16.427Z,16.62
2018-09-04T03:39:45.266Z,16.57
2018-09-04T03:42:14.159Z,16.60
2018-09-04T03:44:43.079Z,16.56
2018-09-04T03:47:11.895Z,16.54
2018-09-04T03:49:40.798Z,16.50
2018-09-04T03:52:09.601Z,16.45
2018-09-04T03:54:38.767Z,16.46
2018-09-04T03:57:07.635Z,16.40
2018-09-04T03:59:36.482Z,16.30
2018-09-04T04:02:05.611Z,16.33
2018-09-04T04:04:34.459Z,16.32
2018-09-04T04:07:03.314Z,16.33
2018-09-04T04:09:32.204Z,16.39
2018-09-04T04:12:01.350Z,16.35
2018-09-04T04:14:30.133Z,16.27
2018-09-04T04:16:59.085Z,16.21
2018-09-04T04:19:27.920Z,16.17
2018-09-04T04:21:56.739Z,16.22
2018-09-04T04:24:25.566Z,16.33
2018-09-04T04:26:54.330Z,16.30
2018-09-04T04:29:23.227Z,16.19
2018-09-04T04:31:52.020Z,16.15
2018-09-04T04:34:20.887Z,16.25
2018-09-04T04:36:49.687Z,16.12
2018-09-04T04:39:18.504Z,16.09
2018-09-04T04:41:47.272Z,16.12
2018-09-04T04:44:16.032Z,16.15
2018-09-04T04:46:45.316Z,16.06
2018-09-04T04:49:14.104Z,16.11
2018-09-04T04:51:42.919Z,16.10
2018-09-04T04:54:11.703Z,16.25
2018-09-04T04:56:40.531Z,16.17
2018-09-04T04:59:09.530Z,16.15
2018-09-04T05:01:38.476Z,16.16
2018-09-04T05:04:07.637Z,16.17
2018-09-04T05:06:36.436Z,16.14
2018-09-04T05:09:08.052Z,15.95
2018-09-04T05:11:37.034Z,16.03
2018-09-04T05:14:05.943Z,16.14
2018-09-04T05:16:34.795Z,16.23
2018-09-04T05:19:03.599Z,16.33
2018-09-04T05:21:32.413Z,16.42
2018-09-04T05:24:01.265Z,16.50
2018-09-04T05:26:30.125Z,16.46
2018-09-04T05:28:58.912Z,16.41
2018-09-04T05:31:28.378Z,16.36
2018-09-04T05:33:57.293Z,16.38
2018-09-04T05:36:26.213Z,16.43
2018-09-04T05:38:54.976Z,16.61
2018-09-04T05:41:23.916Z,16.63
2018-09-04T05:43:57.825Z,16.66
2018-09-04T05:46:32.596Z,16.76
2018-09-04T05:49:01.854Z,16.78
2018-09-04T05:51:30.677Z,16.77
2018-09-04T05:53:59.935Z,16.71
2018-09-04T05:56:28.841Z,16.91
2018-09-04T05:58:57.665Z,16.86
2018-09-04T06:01:26.612Z,16.67
2018-09-04T06:03:55.452Z,16.93
2018-09-04T06:06:24.215Z,16.87
2018-09-04T06:08:53.120Z,16.80
2018-09-04T06:11:21.920Z,16.93
2018-09-04T06:13:50.885Z,17.06
2018-09-04T06:16:19.659Z,17.17
2018-09-04T06:18:48.495Z,16.79
2018-09-04T06:21:17.292Z,17.12
2018-09-04T06:23:46.149Z,16.95
2018-09-04T06:26:14.973Z,16.93
2018-09-04T06:28:43.807Z,16.49
2018-09-04T06:31:12.609Z,16.48
2018-09-04T06:33:41.767Z,16.48
2018-09-04T06:36:10.590Z,16.53
2018-09-04T06:38:39.580Z,16.55
2018-09-04T06:41:08.443Z,16.44
2018-09-04T06:43:37.238Z,16.43
2018-09-04T06:46:06.200Z,16.50
2018-09-04T06:48:35.480Z,16.70
2018-09-04T06:51:06.612Z,16.67
2018-09-04T06:53:35.538Z,16.43
2018-09-04T06:56:04.549Z,16.43
2018-09-04T06:58:33.347Z,16.56
2018-09-04T07:01:02.233Z,16.65
2018-09-04T07:03:31.093Z,16.59
2018-09-04T07:05:59.977Z,16.47
2018-09-04T07:08:28.740Z,16.57
2018-09-04T07:10:57.564Z,16.79
2018-09-04T07:13:26.340Z,16.67
2018-09-04T07:15:55.229Z,16.82
2018-09-04T07:18:24.016Z,16.80
2018-09-04T07:20:53.248Z,16.93
2018-09-04T07:23:22.149Z,17.11
2018-09-04T07:25:51.007Z,17.19
2018-09-04T07:28:19.846Z,16.94
2018-09-04T07:30:48.735Z,17.05
2018-09-04T07:33:17.609Z,16.96
2018-09-04T07:35:46.478Z,16.84
2018-09-04T07:38:15.269Z,16.88
2018-09-04T07:40:44.190Z,17.05
2018-09-04T07:43:12.980Z,17.28
2018-09-04T07:45:41.799Z,17.25
2018-09-04T07:48:10.633Z,17.31
2018-09-04T07:50:39.413Z,17.48
2018-09-04T07:53:08.328Z,17.33
2018-09-04T07:55:37.082Z,17.25
2018-09-04T07:58:05.912Z,17.55
2018-09-04T08:00:34.782Z,17.52
2018-09-04T08:03:03.631Z,17.51
2018-09-04T08:05:32.531Z,17.48
2018-09-04T08:08:01.390Z,17.71
2018-09-04T08:10:33.639Z,17.81
2018-09-04T08:13:07.032Z,17.73
2018-09-04T08:15:37.419Z,17.74
2018-09-04T08:18:06.302Z,17.66
2018-09-04T08:20:35.213Z,17.94
2018-09-04T08:23:04.001Z,18.08
2018-09-04T08:25:32.776Z,18.13
2018-09-04T08:28:02.021Z,17.89
2018-09-04T08:30:30.826Z,17.86
2018-09-04T08:32:59.889Z,18.28
2018-09-04T08:35:28.459Z,18.36
2018-09-04T08:37:59.724Z,17.92
2018-09-04T08:40:31.089Z,18.02
2018-09-04T08:43:01.481Z,18.14
2018-09-04T08:45:31.552Z,18.02
2018-09-04T08:48:02.348Z,18.19
2018-09-04T08:50:32.929Z,18.10
2018-09-04T08:53:01.785Z,18.25
2018-09-04T08:55:30.653Z,18.46
2018-09-04T08:57:59.419Z,18.24
2018-09-04T09:00:28.280Z,18.52
2018-09-04T09:02:57.252Z,18.28
2018-09-04T09:05:26.123Z,18.69
2018-09-04T09:07:55.009Z,19.00
2018-09-04T09:10:23.865Z,18.81
2018-09-04T09:12:52.638Z,18.60
2018-09-04T09:15:21.594Z,18.74
2018-09-04T09:17:50.372Z,18.71
2018-09-04T09:20:19.238Z,18.92
2018-09-04T09:22:48.043Z,18.87
2018-09-04T09:25:16.821Z,19.05
2018-09-04T09:27:45.781Z,19.18
2018-09-04T09:30:14.590Z,19.23
2018-09-04T09:32:43.395Z,19.27
2018-09-04T09:35:12.190Z,19.43
2018-09-04T09:37:41.028Z,19.55
2018-09-04T09:40:09.882Z,19.47
2018-09-04T09:42:38.772Z,19.96
2018-09-04T09:45:07.623Z,19.78
2018-09-04T09:47:40.943Z,19.35
2018-09-04T09:50:09.771Z,19.64
2018-09-04T09:52:38.869Z,19.53
2018-09-04T09:55:08.736Z,19.97
2018-09-04T09:57:37.623Z,20.50
2018-09-04T10:00:08.180Z,19.85
2018-09-04T10:02:42.484Z,19.82
2018-09-04T10:05:11.591Z,20.04
2018-09-04T10:07:40.464Z,20.42
2018-09-04T10:10:09.268Z,19.81
2018-09-04T10:12:38.132Z,20.39
2018-09-04T10:15:06.987Z,20.70
2018-09-04T10:17:35.924Z,21.12
2018-09-04T10:20:04.881Z,20.83
2018-09-04T10:22:33.704Z,20.65
2018-09-04T10:25:02.472Z,20.34
2018-09-04T10:27:31.287Z,20.89
2018-09-04T10:30:00.122Z,20.35
2018-09-04T10:32:28.989Z,20.33
2018-09-04T10:34:57.780Z,20.38
2018-09-04T10:37:26.640Z,20.84
2018-09-04T10:40:00.905Z,21.12
2018-09-04T10:42:30.795Z,20.92
2018-09-04T10:44:59.751Z,21.36
2018-09-04T10:47:28.733Z,21.68
2018-09-04T10:49:57.668Z,21.55
2018-09-04T10:52:26.454Z,21.49
2018-09-04T10:54:55.427Z,21.50
2018-09-04T10:57:24.196Z,21.54
2018-09-04T10:59:52.996Z,21.37
2018-09-04T11:02:21.879Z,21.76
2018-09-04T11:04:50.895Z,21.90
2018-09-04T11:07:19.715Z,22.24
2018-09-04T11:09:48.989Z,22.13
2018-09-04T11:12:17.729Z,21.95
2018-09-04T11:14:46.580Z,21.81
2018-09-04T11:17:15.387Z,21.86
2018-09-04T11:19:44.284Z,21.93
2018-09-04T11:22:13.093Z,21.71
2018-09-04T11:24:41.928Z,21.97
2018-09-04T11:27:10.728Z,21.99
2018-09-04T11:29:40.431Z,22.53
2018-09-04T11:32:09.281Z,22.42
2018-09-04T11:34:38.112Z,22.30
2018-09-04T11:37:06.980Z,22.24
2018-09-04T11:39:35.757Z,22.45
2018-09-04T11:42:04.639Z,22.56
2018-09-04T11:44:33.484Z,22.74
2018-09-04T11:47:03.275Z,22.39
2018-09-04T11:49:31.972Z,22.75
2018-09-04T11:52:00.795Z,22.65
2018-09-04T11:54:29.571Z,22.92
2018-09-04T11:56:58.520Z,22.87
2018-09-04T11:59:27.396Z,23.13
2018-09-04T12:01:57.987Z,23.33
2018-09-04T12:04:26.805Z,23.28
2018-09-04T12:06:55.740Z,23.41
2018-09-04T12:09:24.588Z,23.43
2018-09-04T12:11:53.415Z,23.50
2018-09-04T12:14:22.531Z,22.94
2018-09-04T12:16:51.347Z,22.98
2018-09-04T12:19:20.228Z,22.93
2018-09-04T12:21:49.039Z,23.21
2018-09-04T12:24:17.923Z,23.51
2018-09-04T12:26:46.745Z,23.26
2018-09-04T12:29:15.541Z,23.58
2018-09-04T12:31:44.444Z,23.71
2018-09-04T12:34:13.376Z,24.05
2018-09-04T12:36:42.219Z,23.44
2018-09-04T12:39:10.976Z,23.43
2018-09-04T12:41:40.091Z,23.86
2018-09-04T12:44:08.918Z,23.86
2018-09-04T12:46:37.861Z,23.82
2018-09-04T12:49:06.673Z,23.98
2018-09-04T12:51:35.464Z,24.25
2018-09-04T12:54:04.280Z,24.22
2018-09-04T12:56:33.093Z,24.22
2018-09-04T12:59:02.044Z,24.08
2018-09-04T13:01:30.866Z,24.32
2018-09-04T13:03:59.719Z,24.12
2018-09-04T13:06:28.524Z,24.38
2018-09-04T13:08:57.432Z,24.10
2018-09-04T13:11:26.382Z,24.15
2018-09-04T13:13:55.244Z,24.39
2018-09-04T13:16:24.013Z,24.25
2018-09-04T13:18:52.896Z,24.55
2018-09-04T13:21:22.385Z,24.38
2018-09-04T13:23:51.267Z,24.46
2018-09-04T13:26:20.018Z,24.42
2018-09-04T13:28:48.900Z,24.53
2018-09-04T13:31:17.651Z,24.88
2018-09-04T13:33:46.472Z,25.10
2018-09-04T13:36:15.391Z,24.73
2018-09-04T13:38:44.146Z,24.78
2018-09-04T13:41:12.971Z,24.81
2018-09-04T13:43:41.724Z,25.18
2018-09-04T13:46:10.624Z,24.91
2018-09-04T13:48:39.524Z,25.15
2018-09-04T13:51:08.767Z,25.14
2018-09-04T13:53:37.531Z,25.33
2018-09-04T13:56:06.461Z,25.05
2018-09-04T13:58:35.314Z,25.26
2018-09-04T14:01:04.219Z,25.32
2018-09-04T14:03:32.981Z,25.22
2018-09-04T14:06:01.812Z,24.71
2018-09-04T14:08:30.592Z,25.36
2018-09-04T14:11:00.459Z,25.09
2018-09-04T14:13:30.703Z,25.07
2018-09-04T14:16:02.409Z,25.19
2018-09-04T14:18:31.205Z,25.04
2018-09-04T14:21:00.039Z,25.47
2018-09-04T14:23:28.837Z,25.07
2018-09-04T14:25:57.691Z,25.37
2018-09-04T14:28:41.682Z,25.36
2018-09-04T14:30:56.189Z,25.74
2018-09-04T14:33:25.047Z,25.43
2018-09-04T14:35:53.931Z,25.85
2018-09-04T14:38:22.832Z,25.45
2018-09-04T14:40:51.641Z,25.56
2018-09-04T14:43:20.452Z,25.64
2018-09-04T14:45:49.293Z,25.59
2018-09-04T14:48:18.126Z,25.81
2018-09-04T14:50:47.028Z,25.78
2018-09-04T14:53:15.828Z,25.85
2018-09-04T14:55:44.584Z,25.82
2018-09-04T14:58:13.375Z,25.70
2018-09-04T15:00:42.172Z,25.81
2018-09-04T15:03:11.054Z,25.86
2018-09-04T15:05:39.823Z,25.76
2018-09-04T15:08:08.628Z,25.57
2018-09-04T15:10:37.398Z,25.58
2018-09-04T15:13:06.256Z,25.47
2018-09-04T15:15:35.183Z,25.80
2018-09-04T15:18:04.014Z,25.55
2018-09-04T15:20:32.779Z,25.62
2018-09-04T15:23:01.683Z,25.74
2018-09-04T15:25:30.483Z,25.81
2018-09-04T15:27:59.384Z,25.72
2018-09-04T15:30:28.165Z,26.00
2018-09-04T15:32:56.981Z,26.14
2018-09-04T15:35:25.816Z,25.78
2018-09-04T15:37:54.616Z,25.47
2018-09-04T15:40:23.505Z,25.79
2018-09-04T15:42:52.375Z,25.76
2018-09-04T15:45:27.188Z,25.71
2018-09-04T15:47:56.008Z,25.77
2018-09-04T15:50:24.912Z,25.83
2018-09-04T15:52:53.697Z,25.72
2018-09-04T15:55:22.601Z,25.74
2018-09-04T15:57:51.365Z,25.88
2018-09-04T16:00:20.232Z,25.63
2018-09-04T16:02:49.032Z,25.87
2018-09-04T16:05:17.874Z,25.41
2018-09-04T16:07:46.713Z,25.54
2018-09-04T16:10:15.648Z,25.29
2018-09-04T16:12:44.319Z,25.20
2018-09-04T16:15:13.275Z,25.57
2018-09-04T16:17:42.082Z,25.24
2018-09-04T16:20:10.964Z,25.30
2018-09-04T16:22:39.793Z,25.42
2018-09-04T16:25:08.766Z,25.67
2018-09-04T16:27:37.656Z,25.41
2018-09-04T16:30:06.569Z,25.09
2018-09-04T16:32:35.341Z,25.12
2018-09-04T16:35:04.156Z,25.15
2018-09-04T16:37:33.009Z,24.98
2018-09-04T16:40:02.083Z,24.93
2018-09-04T16:42:30.924Z,24.99
2018-09-04T16:44:59.712Z,24.91
2018-09-04T16:47:29.007Z,24.74
2018-09-04T16:49:58.057Z,24.78
2018-09-04T16:52:27.019Z,24.72
2018-09-04T16:54:55.897Z,24.68
2018-09-04T16:57:24.753Z,24.62
2018-09-04T16:59:53.550Z,24.49
2018-09-04T17:02:22.486Z,24.61
2018-09-04T17:04:51.356Z,24.42
2018-09-04T17:07:20.192Z,24.48
2018-09-04T17:09:48.995Z,24.22
2018-09-04T17:12:17.916Z,24.21
2018-09-04T17:14:46.708Z,24.06
2018-09-04T17:17:15.574Z,23.99
2018-09-04T17:19:44.415Z,23.93
2018-09-04T17:22:13.267Z,23.87
2018-09-04T17:24:42.042Z,23.80
2018-09-04T17:27:10.811Z,23.68
2018-09-04T17:29:39.972Z,23.64
2018-09-04T17:32:08.838Z,23.57
2018-09-04T17:34:37.657Z,23.43
2018-09-04T17:37:06.458Z,23.34
2018-09-04T17:39:35.268Z,23.31
2018-09-04T17:42:04.146Z,23.22
2018-09-04T17:44:32.956Z,23.14
2018-09-04T17:47:01.886Z,23.10
2018-09-04T17:49:30.704Z,22.96
2018-09-04T17:51:59.463Z,22.87
2018-09-04T17:54:28.583Z,22.83
2018-09-04T17:56:57.372Z,22.72
2018-09-04T17:59:26.204Z,22.67
2018-09-04T18:01:54.987Z,22.61
2018-09-04T18:04:23.803Z,22.59
2018-09-04T18:06:52.728Z,22.45
2018-09-04T18:09:21.560Z,22.35
2018-09-04T18:11:50.805Z,22.34
2018-09-04T18:14:19.649Z,22.24
2018-09-04T18:16:48.468Z,22.16
2018-09-04T18:19:18.053Z,22.18
2018-09-04T18:21:47.207Z,22.11
2018-09-04T18:24:16.066Z,21.97
2018-09-04T18:26:44.930Z,21.85
2018-09-04T18:29:13.996Z,21.80
2018-09-04T18:31:42.844Z,21.70
2018-09-04T18:34:11.716Z,21.56
2018-09-04T18:36:40.567Z,21.60
2018-09-04T18:39:09.637Z,21.54
2018-09-04T18:41:38.488Z,21.45
2018-09-04T18:44:07.333Z,21.44
2018-09-04T18:46:36.353Z,21.36
2018-09-04T18:49:05.230Z,21.36
2018-09-04T18:51:34.021Z,21.28
2018-09-04T18:54:02.860Z,21.20
2018-09-04T18:56:31.810Z,21.14
2018-09-04T18:59:00.858Z,21.04
2018-09-04T19:01:29.963Z,20.98
2018-09-04T19:03:58.845Z,20.92
2018-09-04T19:06:27.645Z,20.85
2018-09-04T19:08:56.499Z,20.76
2018-09-04T19:11:25.302Z,20.71
2018-09-04T19:13:54.230Z,20.67
2018-09-04T19:16:23.269Z,20.62
2018-09-04T19:18:52.108Z,20.53
2018-09-04T19:21:21.030Z,20.46
2018-09-04T19:23:49.854Z,20.43
2018-09-04T19:26:18.688Z,20.37
2018-09-04T19:28:47.536Z,20.24
2018-09-04T19:31:16.323Z,20.21
2018-09-04T19:33:45.159Z,20.15
2018-09-04T19:36:14.251Z,20.09
2018-09-04T19:38:43.055Z,20.06
2018-09-04T19:41:12.499Z,20.00
2018-09-04T19:43:41.279Z,19.97
2018-09-04T19:46:10.195Z,19.97
2018-09-04T19:48:39.012Z,19.87
2018-09-04T19:51:07.803Z,19.83
2018-09-04T19:53:36.978Z,19.77
2018-09-04T19:56:05.959Z,19.70
2018-09-04T19:58:34.767Z,19.69
2018-09-04T20:01:03.626Z,19.60
2018-09-04T20:03:32.428Z,19.53
2018-09-04T20:06:01.277Z,19.45
2018-09-04T20:08:30.079Z,19.40
2018-09-04T20:10:58.915Z,19.37
2018-09-04T20:13:27.835Z,19.34
2018-09-04T20:15:56.656Z,19.30
2018-09-04T20:18:25.455Z,19.27
2018-09-04T20:20:54.259Z,19.17
2018-09-04T20:23:23.101Z,19.14
2018-09-04T20:25:51.866Z,19.12
2018-09-04T20:28:20.706Z,19.15
2018-09-04T20:30:49.495Z,19.14
2018-09-04T20:33:18.358Z,19.06
2018-09-04T20:35:47.186Z,19.01
2018-09-04T20:38:16.013Z,18.96
2018-09-04T20:40:45.207Z,18.90
2018-09-04T20:43:14.080Z,18.93
2018-09-04T20:45:48.065Z,18.82
2018-09-04T20:48:16.920Z,18.69
2018-09-04T20:50:45.739Z,18.81
2018-09-04T20:53:14.636Z,18.54
2018-09-04T20:55:43.455Z,18.48
2018-09-04T20:58:29.476Z,18.61
2018-09-04T21:01:15.215Z,18.45
2018-09-04T21:04:01.251Z,18.36
2018-09-04T21:06:42.848Z,18.32
2018-09-04T21:10:23.828Z,18.38
2018-09-04T21:12:52.677Z,18.19
2018-09-04T21:15:21.488Z,18.20
2018-09-04T21:17:50.913Z,18.10
2018-09-04T21:20:19.780Z,18.04
2018-09-04T21:22:48.700Z,18.07
2018-09-04T21:25:17.814Z,18.10
2018-09-04T21:27:46.588Z,17.95
2018-09-04T21:30:15.381Z,17.98
2018-09-04T21:32:44.572Z,17.92
2018-09-04T21:35:13.342Z,18.01
2018-09-04T21:37:42.312Z,17.89
2018-09-04T21:40:11.352Z,17.80
2018-09-04T21:42:40.132Z,17.82
2018-09-04T21:45:08.996Z,17.77
2018-09-04T21:47:38.014Z,17.64
2018-09-04T21:50:07.642Z,17.78
2018-09-04T21:52:36.431Z,17.69
2018-09-04T21:55:06.078Z,17.62
2018-09-04T21:57:34.859Z,17.64
2018-09-04T22:00:04.570Z,17.73
2018-09-04T22:02:33.519Z,17.65
2018-09-04T22:05:02.413Z,17.62
2018-09-04T22:07:31.228Z,17.37
2018-09-04T22:10:00.512Z,17.38
2018-09-04T22:12:29.860Z,17.40
2018-09-04T22:14:58.707Z,17.29
2018-09-04T22:17:27.910Z,17.26
2018-09-04T22:19:56.755Z,17.23
2018-09-04T22:22:25.556Z,17.13
2018-09-04T22:24:54.575Z,17.15
2018-09-04T22:27:23.396Z,17.14
2018-09-04T22:29:52.229Z,17.06
2018-09-04T22:32:21.564Z,17.24
2018-09-04T22:34:50.404Z,17.14
2018-09-04T22:37:19.191Z,16.83
2018-09-04T22:39:48.347Z,16.80
2018-09-04T22:42:17.154Z,16.88
2018-09-04T22:44:45.959Z,16.96
2018-09-04T22:47:15.117Z,16.85
2018-09-04T22:49:49.447Z,16.80
2018-09-04T22:52:23.043Z,16.69
2018-09-04T22:54:55.914Z,16.71
2018-09-04T22:57:25.232Z,16.67
2018-09-04T22:59:54.023Z,16.68
2018-09-04T23:02:22.874Z,16.69
2018-09-04T23:04:51.821Z,16.67
2018-09-04T23:07:20.785Z,16.59
2018-09-04T23:09:49.606Z,16.69
2018-09-04T23:12:18.791Z,16.75
2018-09-04T23:14:47.654Z,16.77
2018-09-04T23:17:16.420Z,16.85
2018-09-04T23:19:45.561Z,16.81
2018-09-04T23:22:14.383Z,16.76
2018-09-04T23:24:43.168Z,16.60
2018-09-04T23:27:12.354Z,16.59
2018-09-04T23:29:41.446Z,16.48
2018-09-04T23:32:10.209Z,16.44
2018-09-04T23:34:39.943Z,16.45
2018-09-04T23:37:08.735Z,16.45
2018-09-04T23:39:38.180Z,16.44
2018-09-04T23:42:07.294Z,16.37
2018-09-04T23:44:36.103Z,16.48
2018-09-04T23:47:05.283Z,16.54
2018-09-04T23:49:34.590Z,16.60
2018-09-04T23:52:03.495Z,16.44
2018-09-04T23:54:32.380Z,16.27
2018-09-04T23:57:01.312Z,16.12
2018-09-04T23:59:30.087Z,16.27
